Time;durP1;ratioP1;P1;durP2;ratioP2;P2;SDS_P1;SDS_P2;PMS_P1;PMS_P2;Temp;Humidity;BMP_temperature;BMP_pressure;BME280_temperature;BME280_humidity;BME280_pressure;Samples;Min_cycle;Max_cycle;Signal;HPM_P1;HPM_P2
2022/06/19 00:00:45;;;;;;;15.00;4.55;;;21.70;99.90;;;;;;5090008;28;20242;-50
2022/06/19 00:03:19;;;;;;;14.18;5.25;;;21.60;99.90;;;;;;5093721;28;20604;-50
2022/06/19 00:05:47;;;;;;;12.85;4.28;;;21.60;99.90;;;;;;5093658;28;20851;-50
2022/06/19 00:08:16;;;;;;;11.85;4.47;;;21.60;99.90;;;;;;5081072;28;20263;-50
2022/06/19 00:10:44;;;;;;;11.93;4.18;;;21.50;99.90;;;;;;5083471;28;20196;-50
2022/06/19 00:13:12;;;;;;;14.43;4.63;;;21.50;99.90;;;;;;5092951;28;20204;-50
2022/06/19 00:15:41;;;;;;;15.32;5.22;;;21.50;99.90;;;;;;5093319;28;20235;-50
2022/06/19 00:18:09;;;;;;;13.63;4.85;;;21.40;99.90;;;;;;5092325;28;20266;-50
2022/06/19 00:20:39;;;;;;;14.48;4.97;;;21.40;99.90;;;;;;5092465;28;20208;-49
2022/06/19 00:23:07;;;;;;;12.23;4.30;;;21.30;99.90;;;;;;5083199;28;20278;-51
2022/06/19 00:25:37;;;;;;;15.48;4.85;;;21.30;99.90;;;;;;5093003;28;20274;-50
2022/06/19 00:28:06;;;;;;;13.65;4.90;;;21.30;99.90;;;;;;5066513;28;20223;-51
2022/06/19 00:30:35;;;;;;;12.05;4.78;;;21.30;99.90;;;;;;5090066;28;20258;-49
2022/06/19 00:33:03;;;;;;;14.55;4.63;;;21.20;99.90;;;;;;5091359;28;20238;-50
2022/06/19 00:35:31;;;;;;;17.00;4.32;;;21.20;99.90;;;;;;5092847;28;20239;-51
2022/06/19 00:37:59;;;;;;;14.75;5.38;;;21.20;99.90;;;;;;5093023;28;20598;-50
2022/06/19 00:40:30;;;;;;;11.35;4.47;;;21.10;99.90;;;;;;5093020;28;20235;-51
2022/06/19 00:42:59;;;;;;;15.73;4.85;;;21.10;99.90;;;;;;5064115;28;20220;-51
2022/06/19 00:45:37;;;;;;;14.23;4.32;;;21.10;99.90;;;;;;5092955;28;20669;-50
2022/06/19 00:48:12;;;;;;;13.40;4.53;;;21.00;99.90;;;;;;5087471;28;20232;-50
2022/06/19 00:50:41;;;;;;;13.90;4.40;;;21.00;99.90;;;;;;5093022;28;20890;-51
2022/06/19 00:53:14;;;;;;;13.57;4.57;;;21.00;99.90;;;;;;5091786;28;20208;-50
2022/06/19 00:55:46;;;;;;;12.15;4.72;;;20.90;99.90;;;;;;5080441;28;21004;-50
2022/06/19 00:58:21;;;;;;;12.55;4.40;;;20.80;99.90;;;;;;5092619;28;20708;-50
2022/06/19 01:00:58;;;;;;;13.98;4.93;;;20.80;99.90;;;;;;5092368;28;20208;-51
2022/06/19 01:03:30;;;;;;;15.30;4.38;;;20.70;99.90;;;;;;5091758;28;20255;-50
2022/06/19 01:05:59;;;;;;;10.07;4.45;;;20.70;99.90;;;;;;5091473;28;20211;-51
2022/06/19 01:08:27;;;;;;;16.40;5.78;;;20.80;99.90;;;;;;5091993;28;20721;-51
2022/06/19 01:10:55;;;;;;;10.20;4.85;;;20.80;99.90;;;;;;5083480;28;20678;-50
2022/06/19 01:13:28;;;;;;;11.45;4.18;;;20.80;99.90;;;;;;5092291;28;20208;-50
2022/06/19 01:15:56;;;;;;;11.60;4.88;;;20.70;99.90;;;;;;5092478;28;20200;-51
2022/06/19 01:18:25;;;;;;;11.88;4.35;;;20.70;99.90;;;;;;5091444;28;20285;-50
2022/06/19 01:20:58;;;;;;;11.45;4.75;;;20.60;99.90;;;;;;5092225;28;20953;-50
2022/06/19 01:23:33;;;;;;;15.55;5.30;;;20.60;99.90;;;;;;5070497;28;20720;-49
2022/06/19 01:26:02;;;;;;;19.25;5.10;;;20.50;99.90;;;;;;5080831;28;20625;-50
2022/06/19 01:28:55;;;;;;;14.85;4.35;;;20.50;99.90;;;;;;5071392;28;20263;-50
2022/06/19 01:31:27;;;;;;;14.68;4.97;;;20.50;99.90;;;;;;5067561;28;20213;-50
2022/06/19 01:33:59;;;;;;;13.40;4.78;;;20.40;99.90;;;;;;5063115;28;20213;-50
2022/06/19 01:36:29;;;;;;;12.75;4.40;;;20.40;99.90;;;;;;5068425;28;20678;-50
2022/06/19 01:38:59;;;;;;;15.68;4.70;;;20.30;99.90;;;;;;5079564;28;20228;-50
2022/06/19 01:41:31;;;;;;;12.65;4.30;;;20.20;99.90;;;;;;5070916;28;20720;-50
2022/06/19 01:44:00;;;;;;;12.70;4.68;;;20.10;99.90;;;;;;5071018;28;20717;-50
2022/06/19 01:46:29;;;;;;;14.50;5.47;;;20.00;99.90;;;;;;5070516;28;20217;-51
2022/06/19 01:48:58;;;;;;;14.20;4.53;;;20.10;99.90;;;;;;5071075;28;20225;-50
2022/06/19 01:51:26;;;;;;;17.10;5.50;;;20.10;99.90;;;;;;5071173;28;20213;-50
2022/06/19 01:53:58;;;;;;;11.52;4.07;;;20.10;99.90;;;;;;5064910;28;20205;-50
2022/06/19 01:56:29;;;;;;;15.98;4.63;;;20.00;99.90;;;;;;5098108;28;20226;-50
2022/06/19 01:59:03;;;;;;;14.00;4.75;;;20.00;99.90;;;;;;5094936;28;20228;-50
2022/06/19 02:01:32;;;;;;;19.30;4.57;;;19.90;99.90;;;;;;5092035;28;20227;-50
2022/06/19 02:04:01;;;;;;;11.88;4.47;;;20.00;99.90;;;;;;5090498;28;20252;-50
2022/06/19 02:06:33;;;;;;;13.18;4.85;;;20.00;99.90;;;;;;5091205;28;20204;-50
2022/06/19 02:09:02;;;;;;;12.48;4.40;;;20.00;99.90;;;;;;5091112;28;20273;-50
2022/06/19 02:11:33;;;;;;;13.57;4.50;;;20.00;99.90;;;;;;5090827;28;20261;-50
2022/06/19 02:14:04;;;;;;;17.50;4.88;;;20.00;99.90;;;;;;5090955;28;20204;-50
2022/06/19 02:16:36;;;;;;;16.73;4.75;;;20.00;99.90;;;;;;5090724;28;20201;-50
2022/06/19 02:19:04;;;;;;;13.73;4.97;;;20.00;99.90;;;;;;5090964;28;20311;-50
2022/06/19 02:21:38;;;;;;;14.50;4.97;;;19.90;99.90;;;;;;5090872;28;20216;-51
2022/06/19 02:24:08;;;;;;;11.90;4.38;;;19.90;99.90;;;;;;5089789;28;20274;-50
2022/06/19 02:26:39;;;;;;;15.45;4.97;;;19.90;99.90;;;;;;5090928;28;20254;-50
2022/06/19 02:29:10;;;;;;;13.73;4.35;;;19.90;99.90;;;;;;5090172;28;20212;-50
2022/06/19 02:31:41;;;;;;;16.65;4.88;;;19.90;99.90;;;;;;5090574;28;20258;-50
2022/06/19 02:34:16;;;;;;;12.02;4.65;;;19.90;99.90;;;;;;5078514;28;20211;-51
2022/06/19 02:36:47;;;;;;;13.20;4.20;;;20.00;99.90;;;;;;5090561;28;20269;-50
2022/06/19 02:39:31;;;;;;;11.70;4.75;;;19.90;99.90;;;;;;5090344;28;20250;-51
2022/06/19 02:42:17;;;;;;;14.52;4.60;;;19.90;99.90;;;;;;5090596;28;20713;-51
2022/06/19 02:44:46;;;;;;;11.57;4.60;;;19.80;99.90;;;;;;5090139;28;20231;-50
2022/06/19 02:47:14;;;;;;;10.43;4.38;;;19.70;99.90;;;;;;5090099;28;20633;-50
2022/06/19 02:49:43;;;;;;;13.40;4.90;;;19.70;99.90;;;;;;5090987;28;20215;-50
2022/06/19 02:52:13;;;;;;;10.70;4.25;;;19.60;99.90;;;;;;5089545;28;21006;-50
2022/06/19 02:54:41;;;;;;;15.70;4.88;;;19.60;99.90;;;;;;5089847;28;20199;-51
2022/06/19 02:57:12;;;;;;;18.83;4.78;;;19.60;99.90;;;;;;5089273;28;20220;-50
2022/06/19 02:59:41;;;;;;;10.60;4.28;;;19.50;99.90;;;;;;5090202;28;20710;-50
2022/06/19 03:02:10;;;;;;;19.98;4.90;;;19.50;99.90;;;;;;5089558;28;20250;-50
2022/06/19 03:04:42;;;;;;;13.20;4.85;;;19.50;99.90;;;;;;5089561;28;20235;-50
2022/06/19 03:07:10;;;;;;;12.05;4.72;;;19.50;99.90;;;;;;5090219;28;20247;-50
2022/06/19 03:09:38;;;;;;;18.70;5.05;;;19.40;99.90;;;;;;5089428;28;20212;-50
2022/06/19 03:12:08;;;;;;;10.50;4.72;;;19.50;99.90;;;;;;5089788;28;20259;-50
2022/06/19 03:14:44;;;;;;;10.40;4.65;;;19.50;99.90;;;;;;5089944;28;20730;-51
2022/06/19 03:17:14;;;;;;;12.48;5.05;;;19.50;99.90;;;;;;5089690;28;20654;-51
2022/06/19 03:19:42;;;;;;;10.63;5.10;;;19.50;99.90;;;;;;5090680;28;20235;-50
2022/06/19 03:22:12;;;;;;;14.32;4.95;;;19.50;99.90;;;;;;5089970;28;20265;-50
2022/06/19 03:24:40;;;;;;;20.10;5.55;;;19.50;99.90;;;;;;5089939;28;20728;-50
2022/06/19 03:27:11;;;;;;;17.25;5.25;;;19.60;99.90;;;;;;5090157;28;20220;-51
2022/06/19 03:29:40;;;;;;;11.88;4.85;;;19.70;99.90;;;;;;5093061;28;20204;-50
2022/06/19 03:32:11;;;;;;;18.88;5.00;;;19.70;99.90;;;;;;5087269;28;20239;-50
2022/06/19 03:34:40;;;;;;;23.73;5.13;;;19.70;99.90;;;;;;5080899;28;20197;-50
2022/06/19 03:37:08;;;;;;;15.90;5.10;;;19.80;99.90;;;;;;5090464;28;20224;-51
2022/06/19 03:39:36;;;;;;;12.68;4.85;;;19.80;99.90;;;;;;5089506;28;20204;-50
2022/06/19 03:42:05;;;;;;;16.13;5.00;;;19.80;99.90;;;;;;5088867;28;20250;-50
2022/06/19 03:44:34;;;;;;;17.25;5.10;;;19.90;99.90;;;;;;5089501;28;20724;-50
2022/06/19 03:47:02;;;;;;;14.25;5.13;;;19.90;99.90;;;;;;5088986;28;20277;-50
2022/06/19 03:49:32;;;;;;;16.23;5.28;;;19.90;99.90;;;;;;5089480;28;20204;-50
2022/06/19 03:52:00;;;;;;;15.27;5.07;;;19.90;99.90;;;;;;5088858;28;20753;-50
2022/06/19 03:54:28;;;;;;;13.15;5.18;;;20.00;99.90;;;;;;5089538;28;20196;-50
2022/06/19 03:56:56;;;;;;;11.88;4.40;;;20.10;99.90;;;;;;5088791;28;20701;-50
2022/06/19 03:59:24;;;;;;;16.00;4.93;;;20.10;99.90;;;;;;5089623;28;20223;-51
2022/06/19 04:01:52;;;;;;;16.67;5.55;;;20.20;99.90;;;;;;5088644;28;20239;-50
2022/06/19 04:04:20;;;;;;;11.80;5.38;;;20.30;99.90;;;;;;5089195;28;20663;-51
2022/06/19 04:06:49;;;;;;;15.13;5.85;;;20.40;99.90;;;;;;5109504;28;20211;-50
2022/06/19 04:09:19;;;;;;;14.93;5.05;;;20.40;99.90;;;;;;5100725;28;20203;-50
2022/06/19 04:11:47;;;;;;;14.75;5.13;;;20.50;99.90;;;;;;5109897;28;20312;-51
2022/06/19 04:14:16;;;;;;;12.02;5.32;;;20.80;99.90;;;;;;5108797;28;20257;-49
2022/06/19 04:16:44;;;;;;;16.23;5.53;;;21.00;99.90;;;;;;5109402;28;20203;-48
2022/06/19 04:19:13;;;;;;;11.55;4.60;;;21.30;99.90;;;;;;5109632;28;20210;-49
2022/06/19 04:21:43;;;;;;;15.52;5.07;;;21.60;99.90;;;;;;5104479;28;20227;-51
2022/06/19 04:24:15;;;;;;;16.10;4.90;;;21.90;99.90;;;;;;5102969;28;20215;-51
2022/06/19 04:26:44;;;;;;;15.27;4.90;;;22.20;99.90;;;;;;5096407;28;20200;-51
2022/06/19 04:29:13;;;;;;;15.93;4.93;;;22.60;99.90;;;;;;5109394;28;20207;-51
2022/06/19 04:31:41;;;;;;;16.42;4.95;;;22.80;99.90;;;;;;5102349;28;20201;-51
2022/06/19 04:34:10;;;;;;;13.93;4.68;;;23.10;99.90;;;;;;5087854;28;20212;-51
2022/06/19 04:36:39;;;;;;;11.20;4.03;;;23.50;99.90;;;;;;5087553;28;20665;-51
2022/06/19 04:39:07;;;;;;;16.42;4.80;;;23.80;99.90;;;;;;5086390;28;20228;-50
2022/06/19 04:41:40;;;;;;;15.77;5.60;;;24.10;99.90;;;;;;5087539;28;20211;-51
2022/06/19 04:44:11;;;;;;;13.15;4.75;;;24.30;99.90;;;;;;5072915;28;20248;-50
2022/06/19 04:46:39;;;;;;;15.85;4.80;;;24.50;99.90;;;;;;5088845;28;20231;-50
2022/06/19 04:49:08;;;;;;;19.67;5.30;;;25.00;99.90;;;;;;5091071;28;20228;-51
2022/06/19 04:51:39;;;;;;;14.35;5.07;;;25.30;99.90;;;;;;5083125;28;20649;-50
2022/06/19 04:54:07;;;;;;;15.57;5.30;;;25.60;99.90;;;;;;5087410;28;20204;-51
2022/06/19 04:56:38;;;;;;;12.27;4.53;;;25.90;99.90;;;;;;5092411;28;20200;-51
2022/06/19 04:59:07;;;;;;;16.10;4.82;;;26.10;99.90;;;;;;5093818;28;20216;-51
2022/06/19 05:01:37;;;;;;;12.75;4.72;;;26.40;99.90;;;;;;5092972;28;20208;-50
2022/06/19 05:04:08;;;;;;;14.50;4.85;;;26.70;99.90;;;;;;5092293;28;22229;-51
2022/06/19 05:06:37;;;;;;;14.32;5.28;;;26.90;99.90;;;;;;5093475;28;20211;-51
2022/06/19 05:09:05;;;;;;;13.95;4.70;;;27.10;99.90;;;;;;5092112;28;20297;-51
2022/06/19 05:11:34;;;;;;;17.20;4.88;;;27.50;99.90;;;;;;5093753;28;20208;-52
2022/06/19 05:14:04;;;;;;;19.02;5.57;;;27.80;99.90;;;;;;5092383;28;20201;-52
2022/06/19 05:16:32;;;;;;;15.88;4.97;;;28.00;99.50;;;;;;5092699;28;20565;-50
2022/06/19 05:19:03;;;;;;;16.25;5.22;;;28.20;98.60;;;;;;5091825;28;20235;-50
2022/06/19 05:21:31;;;;;;;15.45;5.20;;;28.50;99.20;;;;;;5092745;28;20638;-51
2022/06/19 05:24:00;;;;;;;17.48;5.15;;;28.70;98.70;;;;;;5082037;28;20208;-50
2022/06/19 05:26:30;;;;;;;15.63;4.95;;;29.00;98.50;;;;;;5092086;28;20314;-51
2022/06/19 05:28:59;;;;;;;11.70;4.70;;;29.20;98.50;;;;;;5085164;28;20228;-52
2022/06/19 05:31:29;;;;;;;17.90;5.85;;;29.30;98.00;;;;;;5091637;28;20231;-52
2022/06/19 05:33:57;;;;;;;12.75;4.80;;;29.40;97.60;;;;;;5090993;28;20200;-51
2022/06/19 05:36:32;;;;;;;21.92;4.82;;;29.70;97.30;;;;;;5092269;28;20283;-50
2022/06/19 05:39:07;;;;;;;13.05;4.45;;;30.00;98.00;;;;;;5093292;28;20254;-51
2022/06/19 05:41:36;;;;;;;17.55;5.28;;;30.10;98.10;;;;;;5091156;28;20200;-52
2022/06/19 05:44:05;;;;;;;18.27;4.75;;;30.10;98.20;;;;;;5087630;28;20230;-52
2022/06/19 05:46:34;;;;;;;16.65;4.78;;;30.50;98.20;;;;;;5089758;28;20697;-51
2022/06/19 05:49:02;;;;;;;14.30;4.25;;;30.70;98.20;;;;;;5087884;28;20220;-52
2022/06/19 05:51:32;;;;;;;15.70;5.45;;;30.90;97.30;;;;;;5090604;28;20285;-50
2022/06/19 05:54:00;;;;;;;13.35;4.90;;;31.00;97.30;;;;;;5090122;28;20222;-51
2022/06/19 05:56:29;;;;;;;19.05;5.10;;;31.20;96.40;;;;;;5090139;28;20205;-51
2022/06/19 05:58:57;;;;;;;17.85;4.90;;;31.50;95.60;;;;;;5087392;28;20228;-52
2022/06/19 06:01:28;;;;;;;15.55;4.82;;;31.80;94.50;;;;;;5091944;28;20203;-50
2022/06/19 06:03:59;;;;;;;12.40;4.47;;;32.10;92.90;;;;;;5090131;28;20204;-52
2022/06/19 06:06:30;;;;;;;14.65;4.65;;;32.20;93.00;;;;;;5088998;28;20220;-51
2022/06/19 06:08:59;;;;;;;13.07;4.97;;;32.30;92.50;;;;;;5087217;28;20712;-51
2022/06/19 06:11:27;;;;;;;15.27;4.88;;;32.40;92.00;;;;;;5090730;28;20665;-50
2022/06/19 06:13:55;;;;;;;15.95;4.72;;;32.50;91.40;;;;;;5090938;28;20269;-51
2022/06/19 06:16:23;;;;;;;15.77;5.03;;;32.60;91.20;;;;;;5088377;28;20200;-51
2022/06/19 06:18:52;;;;;;;14.95;4.82;;;32.70;90.60;;;;;;5090604;28;20261;-52
2022/06/19 06:21:23;;;;;;;14.88;5.18;;;32.80;91.00;;;;;;5088814;28;20235;-51
2022/06/19 06:23:53;;;;;;;12.43;4.88;;;32.90;90.10;;;;;;5089867;28;20239;-51
2022/06/19 06:26:23;;;;;;;14.48;4.93;;;32.90;91.10;;;;;;5088525;28;20223;-50
2022/06/19 06:28:52;;;;;;;13.57;5.05;;;33.10;90.00;;;;;;5088526;28;20480;-52
2022/06/19 06:31:21;;;;;;;11.15;4.10;;;33.20;87.90;;;;;;5089216;28;20285;-51
2022/06/19 06:33:55;;;;;;;16.05;5.18;;;33.60;88.40;;;;;;5074994;28;20211;-52
2022/06/19 06:36:25;;;;;;;15.00;4.50;;;33.60;87.90;;;;;;5089590;28;20212;-51
2022/06/19 06:38:53;;;;;;;13.95;4.78;;;33.60;86.70;;;;;;5088021;28;20231;-52
2022/06/19 06:41:22;;;;;;;14.85;4.88;;;33.60;87.60;;;;;;5090876;28;20207;-52
2022/06/19 06:43:56;;;;;;;20.67;4.80;;;33.70;89.20;;;;;;5091155;28;20680;-52
2022/06/19 06:46:27;;;;;;;8.80;4.22;;;33.80;88.80;;;;;;5091277;28;20235;-51
2022/06/19 06:48:59;;;;;;;13.27;4.35;;;34.00;88.00;;;;;;5090773;28;20238;-52
2022/06/19 06:51:29;;;;;;;16.33;4.53;;;34.00;88.90;;;;;;5089534;28;20509;-52
2022/06/19 06:53:58;;;;;;;20.15;5.03;;;34.20;87.50;;;;;;5090693;28;20203;-51
2022/06/19 06:56:31;;;;;;;15.50;4.93;;;34.20;87.60;;;;;;5089950;28;20208;-52
2022/06/19 06:58:59;;;;;;;13.00;4.10;;;34.20;86.40;;;;;;5089875;28;20757;-52
2022/06/19 07:01:32;;;;;;;14.10;4.43;;;34.30;87.60;;;;;;5089982;28;20208;-52
2022/06/19 07:04:00;;;;;;;15.13;5.00;;;34.40;86.70;;;;;;5090047;28;20294;-52
2022/06/19 07:06:31;;;;;;;10.65;4.15;;;34.50;86.50;;;;;;5090234;28;20259;-51
2022/06/19 07:09:00;;;;;;;13.05;4.45;;;34.50;88.20;;;;;;5088411;28;20341;-51
2022/06/19 07:11:38;;;;;;;13.65;4.88;;;34.30;86.60;;;;;;5106168;28;20210;-51
2022/06/19 07:14:07;;;;;;;13.88;4.60;;;34.40;86.10;;;;;;5097014;28;20203;-52
2022/06/19 07:16:35;;;;;;;18.45;4.60;;;34.40;86.90;;;;;;5107866;28;20609;-51
2022/06/19 07:19:04;;;;;;;15.18;5.15;;;34.60;86.50;;;;;;5096983;28;20230;-52
2022/06/19 07:21:34;;;;;;;12.32;4.53;;;34.60;86.30;;;;;;5068386;28;20208;-52
2022/06/19 07:24:03;;;;;;;18.92;5.15;;;34.60;87.30;;;;;;5086070;28;20203;-52
2022/06/19 07:26:32;;;;;;;17.77;5.55;;;34.70;84.70;;;;;;5086334;28;20258;-52
2022/06/19 07:29:00;;;;;;;12.52;4.68;;;34.80;83.70;;;;;;5086353;28;20219;-53
2022/06/19 07:31:35;;;;;;;17.73;5.30;;;35.10;83.60;;;;;;5085867;28;20614;-53
2022/06/19 07:34:03;;;;;;;13.23;5.20;;;34.90;86.50;;;;;;5077541;28;20623;-53
2022/06/19 07:36:32;;;;;;;16.48;5.32;;;34.90;85.50;;;;;;5081732;28;20203;-52
2022/06/19 07:39:03;;;;;;;13.68;5.25;;;35.00;86.10;;;;;;5072556;28;20688;-52
2022/06/19 07:41:31;;;;;;;15.52;5.63;;;34.80;83.50;;;;;;5087374;28;20239;-52
2022/06/19 07:43:59;;;;;;;14.27;4.70;;;34.70;85.10;;;;;;5085691;28;20239;-52
2022/06/19 07:46:27;;;;;;;13.40;4.90;;;34.80;86.10;;;;;;5087132;28;20597;-52
2022/06/19 07:51:42;;;;;;;17.17;5.65;;;35.20;87.10;;;;;;5087019;28;20640;-52
2022/06/19 07:54:11;;;;;;;12.85;5.93;;;34.90;82.90;;;;;;5088493;28;20248;-52
2022/06/19 07:56:39;;;;;;;19.38;5.82;;;35.00;85.30;;;;;;5087839;28;20208;-52
2022/06/19 07:59:07;;;;;;;12.20;5.65;;;35.30;84.40;;;;;;5088689;28;20263;-52
2022/06/19 08:01:35;;;;;;;12.30;5.30;;;35.20;84.00;;;;;;5088993;28;20267;-52
2022/06/19 08:04:24;;;;;;;20.42;6.22;;;35.30;83.00;;;;;;5087166;28;20323;-52
2022/06/19 08:06:52;;;;;;;12.73;6.28;;;35.40;83.40;;;;;;5080375;28;20579;-53
2022/06/19 08:09:22;;;;;;;21.95;6.05;;;35.30;82.10;;;;;;5087445;28;20225;-52
2022/06/19 08:11:50;;;;;;;17.08;5.80;;;35.10;85.30;;;;;;5087924;28;20203;-51
2022/06/19 08:14:18;;;;;;;13.02;6.03;;;34.80;87.50;;;;;;5087248;28;20211;-52
2022/06/19 08:16:46;;;;;;;11.38;5.43;;;34.60;84.60;;;;;;5086337;28;20196;-52
2022/06/19 08:19:21;;;;;;;15.73;6.20;;;34.50;88.20;;;;;;5087648;28;20230;-52
2022/06/19 08:21:49;;;;;;;17.55;6.43;;;34.30;87.20;;;;;;5089849;28;20260;-52
2022/06/19 08:24:18;;;;;;;18.98;5.63;;;34.20;88.50;;;;;;5091113;28;20246;-52
2022/06/19 08:26:47;;;;;;;15.98;5.75;;;34.20;87.70;;;;;;5091780;28;20231;-52
2022/06/19 08:29:15;;;;;;;14.05;5.82;;;34.10;88.60;;;;;;5091876;28;20254;-52
2022/06/19 08:31:43;;;;;;;17.67;6.47;;;34.20;88.40;;;;;;5089826;28;20738;-52
2022/06/19 08:34:11;;;;;;;13.35;5.88;;;34.20;89.00;;;;;;5086724;28;20211;-52
2022/06/19 08:36:39;;;;;;;15.52;6.13;;;34.20;87.40;;;;;;5092240;28;20200;-52
2022/06/19 08:39:12;;;;;;;20.48;6.95;;;34.20;87.50;;;;;;5102724;28;20230;-52
2022/06/19 08:42:15;;;;;;;15.30;6.40;;;34.10;89.30;;;;;;5100400;28;20225;-52
2022/06/19 08:45:14;;;;;;;22.33;5.80;;;33.80;86.90;;;;;;5096623;28;20216;-51
2022/06/19 08:48:05;;;;;;;14.32;6.07;;;33.50;90.40;;;;;;5080451;28;20292;-52
2022/06/19 08:50:38;;;;;;;13.32;6.10;;;33.60;90.50;;;;;;5100250;28;20227;-52
2022/06/19 08:53:22;;;;;;;12.55;5.90;;;33.50;90.40;;;;;;5078822;28;20317;-52
2022/06/19 08:55:57;;;;;;;15.52;6.57;;;33.50;91.50;;;;;;5096343;28;20257;-53
2022/06/19 08:58:34;;;;;;;14.10;6.07;;;33.60;90.80;;;;;;5103674;28;20219;-51
2022/06/19 09:01:16;;;;;;;15.65;6.40;;;33.70;91.40;;;;;;5104514;28;20203;-52
2022/06/19 09:06:43;;;;;;;14.02;6.28;;;33.90;90.30;;;;;;5095066;28;20231;-52
2022/06/19 09:09:32;;;;;;;19.45;6.75;;;33.90;90.80;;;;;;5093182;28;20242;-52
2022/06/19 09:12:17;;;;;;;15.43;7.03;;;33.90;90.60;;;;;;5088069;28;20247;-52
2022/06/19 09:15:01;;;;;;;12.63;6.03;;;33.90;90.50;;;;;;5090609;28;20239;-52
2022/06/19 09:17:33;;;;;;;13.00;6.53;;;33.80;91.20;;;;;;5088271;28;20231;-53
2022/06/19 09:20:08;;;;;;;17.08;6.75;;;33.70;90.80;;;;;;5087714;28;20281;-52
2022/06/19 09:23:14;;;;;;;14.02;6.20;;;33.70;90.60;;;;;;5088928;28;20204;-52
2022/06/19 09:25:50;;;;;;;15.48;6.47;;;33.70;90.20;;;;;;5080632;28;20203;-51
2022/06/19 09:28:26;;;;;;;17.23;6.97;;;33.60;88.50;;;;;;5090888;28;20269;-52
2022/06/19 09:31:02;;;;;;;16.40;6.53;;;33.40;89.00;;;;;;5082217;28;20677;-52
2022/06/19 09:33:38;;;;;;;16.58;6.95;;;33.20;88.00;;;;;;5086359;28;21074;-52
2022/06/19 09:36:11;;;;;;;15.43;6.60;;;33.30;89.30;;;;;;5081459;28;20700;-52
2022/06/19 09:38:43;;;;;;;20.45;6.93;;;33.40;89.70;;;;;;5087749;28;20251;-52
2022/06/19 09:41:16;;;;;;;13.73;6.40;;;33.30;88.00;;;;;;5088903;28;20733;-52
2022/06/19 09:43:50;;;;;;;15.02;6.68;;;33.30;88.20;;;;;;5088427;28;20219;-52
2022/06/19 09:46:24;;;;;;;14.77;6.20;;;33.30;87.50;;;;;;5089084;28;20858;-52
2022/06/19 09:49:00;;;;;;;18.20;6.57;;;33.20;90.60;;;;;;5088212;28;20228;-52
2022/06/19 09:51:37;;;;;;;17.90;6.80;;;33.30;89.60;;;;;;5089992;28;20626;-52
2022/06/19 09:54:11;;;;;;;15.07;7.13;;;33.20;89.40;;;;;;5090259;28;20231;-52
2022/06/19 09:56:47;;;;;;;18.90;6.90;;;33.20;88.10;;;;;;5088975;28;20231;-51
2022/06/19 09:59:19;;;;;;;22.67;6.80;;;33.10;90.00;;;;;;5084912;28;20262;-52
2022/06/19 10:01:56;;;;;;;15.95;6.30;;;33.30;90.30;;;;;;5089658;28;20235;-52
2022/06/19 10:04:35;;;;;;;13.82;6.28;;;33.60;89.70;;;;;;5089513;28;20204;-52
2022/06/19 10:07:10;;;;;;;14.40;6.90;;;33.80;89.70;;;;;;5085800;28;20215;-52
2022/06/19 10:09:44;;;;;;;16.33;7.28;;;33.80;89.00;;;;;;5089911;28;20233;-53
2022/06/19 10:12:19;;;;;;;16.10;6.75;;;33.80;89.20;;;;;;5089886;28;20306;-52
2022/06/19 10:14:51;;;;;;;15.00;6.85;;;33.80;86.70;;;;;;5096272;28;20248;-51
2022/06/19 10:17:26;;;;;;;12.57;6.57;;;33.80;87.40;;;;;;5094187;28;20285;-52
2022/06/19 10:20:03;;;;;;;17.63;6.78;;;33.90;87.70;;;;;;5080608;28;20247;-52
2022/06/19 10:22:43;;;;;;;18.67;6.88;;;33.70;88.00;;;;;;5085522;28;20242;-52
2022/06/19 10:25:31;;;;;;;22.90;7.57;;;33.80;88.20;;;;;;5081105;28;20204;-52
2022/06/19 10:28:34;;;;;;;20.60;6.93;;;33.70;89.70;;;;;;5080135;28;20231;-53
2022/06/19 10:31:11;;;;;;;13.52;6.68;;;33.80;87.30;;;;;;5108677;28;20733;-52
2022/06/19 10:34:03;;;;;;;17.35;7.13;;;33.80;88.60;;;;;;5082862;28;20204;-52
2022/06/19 10:36:39;;;;;;;16.58;7.18;;;33.80;88.50;;;;;;5089150;28;20204;-52
2022/06/19 10:39:28;;;;;;;16.95;7.07;;;33.80;87.70;;;;;;5077557;28;20206;-51
2022/06/19 10:42:05;;;;;;;14.27;6.82;;;33.90;89.90;;;;;;5089656;28;20676;-52
2022/06/19 10:45:01;;;;;;;16.15;6.75;;;33.70;89.50;;;;;;5089581;28;20204;-51
2022/06/19 10:47:49;;;;;;;20.15;7.75;;;33.80;89.20;;;;;;5071670;28;20266;-52
2022/06/19 10:50:32;;;;;;;18.83;7.68;;;33.90;87.40;;;;;;5090226;28;20211;-52
2022/06/19 10:53:13;;;;;;;15.60;6.85;;;33.90;87.90;;;;;;5078437;28;20207;-52
2022/06/19 10:55:47;;;;;;;18.10;7.47;;;33.90;89.60;;;;;;5090580;28;20252;-52
2022/06/19 10:58:18;;;;;;;15.15;6.00;;;33.90;88.70;;;;;;5072806;28;20224;-52
2022/06/19 11:00:52;;;;;;;9.25;5.18;;;34.00;90.40;;;;;;5088984;28;20711;-51
2022/06/19 11:06:20;;;;;;;15.35;5.85;;;33.50;90.20;;;;;;5093271;28;20199;-51
2022/06/19 11:08:54;;;;;;;13.43;5.65;;;33.20;90.70;;;;;;5097224;28;20305;-51
2022/06/19 11:11:24;;;;;;;11.48;5.55;;;33.00;90.40;;;;;;5097010;28;20245;-51
2022/06/19 11:14:00;;;;;;;10.35;5.13;;;33.10;90.50;;;;;;5091362;28;20250;-52
2022/06/19 11:16:29;;;;;;;15.00;5.57;;;33.00;90.60;;;;;;5097210;28;20239;-51
2022/06/19 11:18:58;;;;;;;14.93;5.80;;;33.20;92.00;;;;;;5088715;28;20327;-51
2022/06/19 11:21:32;;;;;;;10.35;6.60;;;33.10;91.10;;;;;;5087775;28;20633;-52
2022/06/19 11:24:04;;;;;;;14.07;6.03;;;32.70;90.20;;;;;;5079718;28;21014;-52
2022/06/19 11:26:39;;;;;;;11.50;6.75;;;32.60;90.90;;;;;;5072226;28;20265;-52
2022/06/19 11:29:18;;;;;;;12.70;6.82;;;32.40;90.90;;;;;;5075507;28;20223;-51
2022/06/19 11:32:06;;;;;;;13.98;6.10;;;32.40;91.10;;;;;;5080905;28;20997;-51
2022/06/19 11:34:48;;;;;;;16.00;6.45;;;32.50;91.40;;;;;;5083751;28;20866;-51
2022/06/19 11:37:21;;;;;;;11.70;6.57;;;32.50;91.50;;;;;;5070594;28;20285;-51
2022/06/19 11:39:54;;;;;;;13.68;6.40;;;32.50;91.30;;;;;;5069450;28;20216;-51
2022/06/19 11:42:32;;;;;;;12.32;6.55;;;32.50;91.80;;;;;;5073839;28;20254;-51
2022/06/19 11:45:03;;;;;;;11.98;6.53;;;32.60;91.00;;;;;;5068610;28;20220;-52
2022/06/19 11:47:37;;;;;;;14.63;7.20;;;32.60;92.50;;;;;;5077800;28;20652;-50
2022/06/19 11:50:13;;;;;;;14.32;6.97;;;32.40;91.60;;;;;;5087800;28;20203;-52
2022/06/19 11:52:47;;;;;;;13.70;6.43;;;32.20;91.00;;;;;;5087640;28;20200;-51
2022/06/19 11:55:21;;;;;;;18.70;7.38;;;32.10;91.70;;;;;;5087044;28;20197;-51
2022/06/19 11:57:51;;;;;;;12.23;7.07;;;32.20;91.00;;;;;;5087881;28;20230;-52
2022/06/19 12:00:26;;;;;;;14.98;6.93;;;32.20;91.50;;;;;;5088677;28;20600;-52
2022/06/19 12:02:56;;;;;;;15.07;7.00;;;32.20;91.00;;;;;;5079711;28;20211;-51
2022/06/19 12:05:28;;;;;;;15.63;7.10;;;32.30;91.50;;;;;;5088748;28;20200;-51
2022/06/19 12:08:08;;;;;;;20.27;7.65;;;32.60;92.10;;;;;;5087494;28;20228;-52
2022/06/19 12:10:40;;;;;;;13.80;6.88;;;32.60;92.30;;;;;;5088730;28;20242;-51
2022/06/19 12:13:23;;;;;;;11.15;7.00;;;32.80;91.30;;;;;;5087815;28;20207;-50
2022/06/19 12:15:59;;;;;;;14.77;6.47;;;32.90;92.70;;;;;;5069997;28;20266;-51
2022/06/19 12:18:28;;;;;;;12.25;6.50;;;33.10;92.20;;;;;;5072396;28;20862;-52
2022/06/19 12:21:00;;;;;;;15.00;6.80;;;33.30;92.50;;;;;;5074773;28;20565;-51
2022/06/19 12:23:38;;;;;;;16.67;7.32;;;33.50;92.70;;;;;;5077799;28;20208;-52
2022/06/19 12:26:11;;;;;;;15.02;6.65;;;33.30;91.70;;;;;;5071972;28;20235;-52
2022/06/19 12:28:46;;;;;;;14.00;6.63;;;33.30;91.10;;;;;;5075969;28;20316;-51
2022/06/19 12:31:17;;;;;;;13.38;6.07;;;33.50;90.80;;;;;;5081628;28;20253;-51
2022/06/19 12:33:49;;;;;;;14.60;6.53;;;33.30;90.90;;;;;;5089121;28;20204;-51
2022/06/19 12:36:19;;;;;;;15.68;6.50;;;33.40;91.20;;;;;;5103459;28;20195;-51
2022/06/19 12:38:51;;;;;;;15.05;6.40;;;33.50;90.30;;;;;;5102685;28;20217;-50
2022/06/19 12:41:34;;;;;;;12.95;6.20;;;33.50;89.50;;;;;;5089696;28;20204;-52
2022/06/19 12:44:19;;;;;;;18.65;6.35;;;33.40;87.80;;;;;;5087430;28;20232;-52
2022/06/19 12:46:58;;;;;;;14.75;6.90;;;33.20;90.40;;;;;;5085551;28;20254;-51
2022/06/19 12:49:43;;;;;;;10.73;5.50;;;33.20;87.80;;;;;;5085616;28;20228;-52
2022/06/19 12:52:21;;;;;;;13.80;5.70;;;33.00;88.40;;;;;;5087147;28;20239;-51
2022/06/19 12:55:26;;;;;;;13.10;5.57;;;33.10;89.20;;;;;;5085911;28;20664;-52
2022/06/19 12:58:16;;;;;;;17.95;5.45;;;33.20;87.10;;;;;;5084903;28;20289;-52
2022/06/19 13:00:48;;;;;;;15.60;6.10;;;33.30;83.00;;;;;;5088485;28;20212;-50
2022/06/19 13:03:40;;;;;;;14.65;6.30;;;33.10;86.10;;;;;;5085868;28;21004;-51
2022/06/19 13:06:33;;;;;;;11.10;6.40;;;32.90;85.30;;;;;;5084892;28;20219;-52
2022/06/19 13:09:20;;;;;;;14.18;6.90;;;32.90;88.10;;;;;;5083232;28;20666;-50
2022/06/19 13:11:58;;;;;;;13.07;6.70;;;32.80;90.20;;;;;;5089174;28;20262;-50